Time;durP1;ratioP1;P1;durP2;ratioP2;P2;SDS_P1;SDS_P2;PMS_P1;PMS_P2;Temp;Humidity;BMP_temperature;BMP_pressure;BME280_temperature;BME280_humidity;BME280_pressure;Samples;Min_cycle;Max_cycle;Signal;HPM_P1;HPM_P2
2021/01/14 00:34:59;;;;;;;1.10;1.10;;;;;;;2.41;99.09;96465.34;5301124;22;20304;-68
2021/01/14 00:40:09;;;;;;;1.20;1.20;;;;;;;2.32;99.42;96469.03;5051490;28;20224;-68
2021/01/14 00:42:34;;;;;;;1.50;1.40;;;;;;;2.37;99.18;96469.28;5032057;28;20894;-72
2021/01/14 00:45:00;;;;;;;1.10;1.10;;;;;;;2.55;99.50;96461.13;5051511;28;20205;-68
2021/01/14 00:47:26;;;;;;;1.20;1.10;;;;;;;2.50;99.05;96451.34;5050781;28;20181;-68
2021/01/14 00:49:52;;;;;;;1.00;1.00;;;;;;;2.54;99.00;96432.84;5050285;28;20178;-67
2021/01/14 00:52:17;;;;;;;1.10;1.10;;;;;;;2.56;98.65;96436.88;5033428;28;20251;-68
2021/01/14 00:54:42;;;;;;;1.07;1.07;;;;;;;2.62;99.31;96445.66;5050606;28;20174;-68
2021/01/14 00:57:11;;;;;;;1.30;1.10;;;;;;;2.61;98.52;96455.22;5051667;28;20635;-68
2021/01/14 00:59:36;;;;;;;1.23;1.13;;;;;;;2.64;97.92;96483.28;5050045;28;20185;-69
2021/01/14 01:02:04;;;;;;;1.20;1.20;;;;;;;2.61;97.81;96496.59;5050735;28;20181;-69
2021/01/14 01:04:29;;;;;;;1.60;1.50;;;;;;;2.67;98.08;96492.47;5050772;28;20212;-69
2021/01/14 01:25:24;;;;;;;2.42;2.05;;;;;;;2.48;96.64;96517.16;5324064;22;20279;-68
2021/01/14 01:27:49;;;;;;;2.83;2.33;;;;;;;2.51;96.24;96494.28;5050258;28;20186;-71
2021/01/14 01:30:15;;;;;;;2.60;2.40;;;;;;;2.42;96.43;96477.28;5032936;28;20208;-68
2021/01/14 01:32:42;;;;;;;2.60;2.40;;;;;;;2.43;95.77;96467.75;5049578;28;20193;-67
2021/01/14 01:35:09;;;;;;;3.17;2.50;;;;;;;2.41;95.91;96478.28;5050269;28;20545;-67
2021/01/14 01:37:34;;;;;;;2.33;2.13;;;;;;;2.45;95.64;96489.06;5049385;28;20178;-67
2021/01/14 01:39:59;;;;;;;2.23;2.10;;;;;;;2.36;95.51;96493.53;5050181;28;20634;-67
2021/01/14 01:42:25;;;;;;;2.57;2.37;;;;;;;2.36;95.64;96503.06;5050764;28;20188;-67
2021/01/14 01:44:50;;;;;;;3.73;2.57;;;;;;;2.35;94.55;96493.72;5050459;28;20226;-72
2021/01/14 01:47:17;;;;;;;2.90;2.60;;;;;;;2.43;95.18;96493.63;5049509;28;20191;-67
2021/01/14 01:49:42;;;;;;;2.70;2.50;;;;;;;2.37;95.58;96496.94;5050389;28;20212;-66
2021/01/14 01:52:08;;;;;;;3.47;2.30;;;;;;;2.39;95.17;96513.06;5049841;28;20178;-67
2021/01/14 01:54:35;;;;;;;2.60;2.40;;;;;;;2.41;95.46;96511.91;5050828;28;20186;-67
2021/01/14 01:57:07;;;;;;;2.43;2.23;;;;;;;2.43;93.82;96506.56;5050054;28;20182;-67
2021/01/14 01:59:33;;;;;;;2.60;2.40;;;;;;;2.41;94.65;96517.06;5051268;28;20608;-67
2021/01/14 02:02:25;;;;;;;4.40;2.30;;;;;;;2.40;94.36;96512.06;5053580;28;20224;-67
2021/01/14 02:04:51;;;;;;;3.27;2.10;;;;;;;2.36;93.55;96508.25;5054192;28;20188;-66
2021/01/14 02:07:47;;;;;;;2.40;2.20;;;;;;;2.34;94.65;96499.91;5053968;28;20190;-66
2021/01/14 02:10:16;;;;;;;2.63;2.03;;;;;;;2.33;93.25;96512.03;5053273;28;20209;-66
2021/01/14 02:12:55;;;;;;;3.37;2.30;;;;;;;2.39;92.46;96506.13;5054124;28;20236;-67
2021/01/14 02:15:23;;;;;;;2.70;2.30;;;;;;;2.31;92.67;96510.59;5054016;28;20264;-67
2021/01/14 02:17:51;;;;;;;2.00;1.80;;;;;;;2.25;92.63;96495.78;5054614;28;20652;-67
2021/01/14 02:20:19;;;;;;;2.17;1.97;;;;;;;2.18;93.35;96497.50;5035667;28;20211;-68
2021/01/14 02:22:50;;;;;;;3.30;2.03;;;;;;;2.22;93.32;96506.50;5053692;28;20193;-67
2021/01/14 02:25:26;;;;;;;2.63;2.33;;;;;;;2.26;93.05;96512.91;5052022;28;20218;-67
2021/01/14 02:27:54;;;;;;;2.10;1.93;;;;;;;2.30;92.29;96519.31;5054123;28;20262;-67
2021/01/14 02:30:21;;;;;;;2.03;1.83;;;;;;;2.30;93.02;96508.97;5053535;28;20213;-67
2021/01/14 02:32:46;;;;;;;2.07;1.97;;;;;;;2.22;92.60;96501.34;5052282;28;20549;-67
2021/01/14 02:35:12;;;;;;;2.10;1.90;;;;;;;2.21;92.71;96508.28;5052783;28;20182;-67
2021/01/14 02:37:37;;;;;;;2.07;1.97;;;;;;;2.15;93.82;96527.09;5053196;28;20185;-67
2021/01/14 02:40:03;;;;;;;2.60;2.40;;;;;;;2.11;92.10;96548.34;5053029;28;20669;-68
2021/01/14 02:42:29;;;;;;;2.10;1.77;;;;;;;2.13;92.99;96543.75;5053885;28;20204;-69
2021/01/14 02:44:54;;;;;;;2.30;2.10;;;;;;;2.15;92.80;96555.53;5052985;28;20567;-71
2021/01/14 02:47:21;;;;;;;3.00;2.27;;;;;;;2.12;92.29;96542.19;5052664;28;20181;-67
2021/01/14 02:49:58;;;;;;;2.20;2.00;;;;;;;2.18;92.79;96537.06;5053622;28;20201;-67
2021/01/14 02:52:25;;;;;;;2.10;1.90;;;;;;;2.22;92.35;96551.25;5053779;28;20188;-67
2021/01/14 02:54:51;;;;;;;2.03;1.90;;;;;;;2.09;91.87;96541.56;5052885;28;20182;-68
2021/01/14 02:57:17;;;;;;;2.93;2.23;;;;;;;2.13;92.74;96543.75;5052802;28;20187;-67
2021/01/14 02:59:45;;;;;;;2.33;2.13;;;;;;;2.08;92.41;96537.34;5053582;28;20186;-68
2021/01/14 03:02:11;;;;;;;2.87;2.00;;;;;;;1.97;92.64;96524.88;5052444;28;20190;-68
2021/01/14 03:04:36;;;;;;;2.30;2.10;;;;;;;2.06;91.77;96528.97;5053208;28;20227;-68
2021/01/14 03:07:02;;;;;;;3.50;2.10;;;;;;;2.01;93.24;96530.50;5052074;28;20642;-68
2021/01/14 03:09:27;;;;;;;2.23;2.03;;;;;;;2.01;93.22;96538.25;5053206;28;20181;-68
2021/01/14 03:11:52;;;;;;;2.07;1.93;;;;;;;2.06;92.44;96547.06;5051883;28;20221;-68
2021/01/14 03:14:18;;;;;;;3.20;2.00;;;;;;;2.01;92.43;96549.38;5052801;28;20648;-68
2021/01/14 03:16:43;;;;;;;2.83;2.33;;;;;;;2.04;93.06;96540.47;5052648;28;20227;-68
2021/01/14 03:19:08;;;;;;;2.20;2.00;;;;;;;1.96;93.55;96551.69;5052165;28;20209;-68
2021/01/14 03:21:34;;;;;;;3.47;2.60;;;;;;;1.90;93.82;96551.63;5052984;28;20296;-68
2021/01/14 03:23:59;;;;;;;4.57;2.33;;;;;;;1.94;93.39;96545.13;5033924;28;20182;-68
2021/01/14 03:26:25;;;;;;;3.50;2.10;;;;;;;1.93;92.28;96544.31;5052718;28;20182;-68
2021/01/14 03:28:51;;;;;;;4.63;2.70;;;;;;;1.91;92.06;96555.81;5052294;28;20260;-68
2021/01/14 03:31:17;;;;;;;3.37;2.40;;;;;;;1.92;93.06;96554.81;5051760;28;20213;-68
2021/01/14 03:33:44;;;;;;;2.87;2.57;;;;;;;1.95;92.74;96555.25;5052089;28;20724;-68
2021/01/14 03:36:14;;;;;;;2.53;2.23;;;;;;;1.84;93.58;96550.53;5051785;28;20190;-68
2021/01/14 03:38:40;;;;;;;3.07;2.37;;;;;;;1.78;93.45;96550.47;5053246;28;20194;-68
2021/01/14 03:41:10;;;;;;;3.57;2.47;;;;;;;1.78;94.29;96556.44;5051850;28;20200;-68
2021/01/14 03:43:36;;;;;;;5.37;2.50;;;;;;;1.74;94.27;96557.75;5052338;28;20205;-67
2021/01/14 03:46:07;;;;;;;2.47;2.27;;;;;;;1.60;95.12;96561.94;5051332;28;20252;-67
2021/01/14 03:48:38;;;;;;;5.17;2.73;;;;;;;1.76;94.65;96560.16;5052447;28;20185;-67
2021/01/14 03:51:04;;;;;;;4.83;2.70;;;;;;;1.70;95.22;96559.09;5051519;28;20281;-67
2021/01/14 03:53:29;;;;;;;3.83;2.50;;;;;;;1.58;96.11;96555.34;5052625;28;20277;-67
2021/01/14 03:55:54;;;;;;;3.13;2.60;;;;;;;1.55;96.06;96559.09;5052716;28;20265;-67
2021/01/14 03:58:20;;;;;;;3.23;2.70;;;;;;;1.49;96.87;96556.41;5051821;28;20189;-67
2021/01/14 04:00:45;;;;;;;3.10;2.70;;;;;;;1.51;97.96;96573.31;5051984;28;20653;-68
2021/01/14 04:03:10;;;;;;;3.50;2.77;;;;;;;1.52;97.29;96572.34;5051817;28;20629;-68
2021/01/14 04:05:35;;;;;;;4.73;2.70;;;;;;;1.53;97.19;96567.97;5052121;28;20205;-68
2021/01/14 04:08:01;;;;;;;3.87;2.80;;;;;;;1.50;97.96;96579.47;5051770;28;20193;-68
2021/01/14 04:10:26;;;;;;;2.80;2.60;;;;;;;1.47;97.61;96574.63;5051934;28;20307;-67
2021/01/14 04:12:52;;;;;;;4.37;2.70;;;;;;;1.44;98.77;96576.78;5051474;28;20178;-68
2021/01/14 04:15:18;;;;;;;3.77;2.70;;;;;;;1.42;98.05;96576.94;5051270;28;20635;-68
2021/01/14 04:17:43;;;;;;;3.77;2.93;;;;;;;1.47;98.33;96571.25;5052225;28;20184;-68
2021/01/14 04:20:09;;;;;;;7.00;3.20;;;;;;;1.40;97.98;96570.34;5050002;28;20556;-68
2021/01/14 04:22:34;;;;;;;3.10;2.80;;;;;;;1.35;98.18;96582.97;5051349;28;20261;-68
2021/01/14 04:25:02;;;;;;;3.10;2.87;;;;;;;1.38;98.85;96590.38;5041781;28;20225;-73
2021/01/14 04:27:29;;;;;;;3.53;3.00;;;;;;;1.42;99.05;96597.59;5039734;28;20244;-68
2021/01/14 04:29:54;;;;;;;5.57;3.13;;;;;;;1.42;98.16;96599.38;5043562;28;20650;-69
2021/01/14 04:32:22;;;;;;;3.50;3.20;;;;;;;1.46;99.56;96605.78;5050828;28;20190;-69
2021/01/14 04:34:47;;;;;;;4.67;3.03;;;;;;;1.45;98.53;96605.00;5051472;28;20182;-69
2021/01/14 04:37:12;;;;;;;4.93;3.20;;;;;;;1.37;99.42;96614.59;5049883;28;20285;-68
2021/01/14 04:39:38;;;;;;;4.27;3.03;;;;;;;1.31;99.99;96610.13;5051418;28;20592;-68
2021/01/14 04:42:07;;;;;;;4.43;2.97;;;;;;;1.07;100.00;96608.50;5050750;28;20723;-68
2021/01/14 04:44:32;;;;;;;4.60;3.30;;;;;;;1.14;100.00;96610.22;5051650;28;20214;-69
2021/01/14 04:47:11;;;;;;;4.43;3.20;;;;;;;1.18;100.00;96598.59;5051577;28;20569;-73
2021/01/14 04:49:36;;;;;;;3.80;3.40;;;;;;;1.19;100.00;96591.66;5051608;28;20638;-68
2021/01/14 04:52:04;;;;;;;5.67;3.37;;;;;;;1.19;100.00;96605.34;5050638;28;20304;-71
2021/01/14 04:54:33;;;;;;;4.27;3.87;;;;;;;1.14;100.00;96615.41;5051366;28;20201;-69
2021/01/14 04:57:03;;;;;;;4.03;3.63;;;;;;;1.19;100.00;96607.94;5035720;28;20178;-72
2021/01/14 04:59:32;;;;;;;4.53;3.17;;;;;;;1.14;100.00;96604.28;5051653;28;20217;-69
2021/01/14 05:01:59;;;;;;;4.73;3.77;;;;;;;1.10;100.00;96613.34;5050938;28;20681;-73
2021/01/14 05:04:33;;;;;;;3.80;3.23;;;;;;;1.04;100.00;96614.81;5047725;28;20182;-67
2021/01/14 05:06:58;;;;;;;6.77;3.70;;;;;;;0.95;100.00;96615.81;5050640;28;20175;-73
2021/01/14 05:09:26;;;;;;;5.67;4.13;;;;;;;1.09;100.00;96612.53;5051012;28;20228;-68
2021/01/14 05:11:59;;;;;;;4.73;4.03;;;;;;;0.97;100.00;96606.16;5051087;28;20221;-67
2021/01/14 05:14:25;;;;;;;6.67;3.93;;;;;;;0.99;100.00;96618.88;5049717;28;20197;-68
2021/01/14 05:16:51;;;;;;;6.23;3.63;;;;;;;0.93;100.00;96611.84;5050808;28;20552;-67
2021/01/14 05:19:17;;;;;;;5.03;3.80;;;;;;;0.95;100.00;96617.63;5049261;28;20174;-68
2021/01/14 05:21:44;;;;;;;4.23;3.50;;;;;;;0.89;100.00;96623.47;5049767;28;20182;-68
2021/01/14 05:24:16;;;;;;;4.23;3.43;;;;;;;0.89;100.00;96626.84;5049744;28;20272;-67
2021/01/14 05:26:45;;;;;;;4.60;3.67;;;;;;;0.81;100.00;96638.00;5051079;28;20182;-69
2021/01/14 05:29:15;;;;;;;4.97;3.70;;;;;;;0.97;100.00;96638.88;5050523;28;20190;-68
2021/01/14 05:31:41;;;;;;;4.37;3.67;;;;;;;0.95;100.00;96638.28;5050996;28;20674;-68
2021/01/14 05:34:06;;;;;;;4.90;3.83;;;;;;;0.91;100.00;96640.38;5050999;28;20217;-68
2021/01/14 05:36:54;;;;;;;4.17;3.77;;;;;;;0.88;100.00;96653.63;5054670;28;20213;-70
2021/01/14 05:39:21;;;;;;;5.87;3.67;;;;;;;0.94;100.00;96665.84;5054064;28;20193;-68
2021/01/14 05:41:48;;;;;;;4.40;3.57;;;;;;;0.83;100.00;96667.03;5054604;28;20210;-67
2021/01/14 05:44:14;;;;;;;4.20;3.57;;;;;;;0.84;100.00;96660.88;5054436;28;20182;-67
2021/01/14 05:46:39;;;;;;;6.73;4.43;;;;;;;0.89;100.00;96662.97;5054582;28;20197;-67
2021/01/14 05:49:09;;;;;;;7.00;4.30;;;;;;;0.94;100.00;96659.88;5054436;28;20304;-68
2021/01/14 05:51:35;;;;;;;5.50;4.00;;;;;;;0.95;100.00;96651.94;5054003;28;20206;-68
2021/01/14 05:54:13;;;;;;;4.37;3.97;;;;;;;1.02;100.00;96647.72;5054612;28;20514;-72
2021/01/14 05:56:49;;;;;;;5.27;4.10;;;;;;;0.97;100.00;96644.06;5054529;28;20198;-67
2021/01/14 05:59:17;;;;;;;6.33;4.23;;;;;;;0.99;100.00;96642.13;5053668;28;20643;-68
2021/01/14 06:01:57;;;;;;;5.90;4.57;;;;;;;1.10;100.00;96650.28;5054372;28;20178;-67
2021/01/14 06:04:25;;;;;;;4.87;4.10;;;;;;;1.05;100.00;96649.97;5053991;28;20190;-68
2021/01/14 06:06:52;;;;;;;8.00;4.53;;;;;;;1.11;100.00;96651.88;5054213;28;20190;-67
2021/01/14 06:09:20;;;;;;;6.60;4.03;;;;;;;0.97;100.00;96659.53;5053143;28;20284;-67
2021/01/14 06:11:47;;;;;;;6.03;4.80;;;;;;;1.01;100.00;96666.75;5054679;28;20205;-67
2021/01/14 06:14:24;;;;;;;5.27;4.00;;;;;;;1.10;100.00;96665.75;5048655;28;20186;-67
2021/01/14 06:16:49;;;;;;;4.30;3.90;;;;;;;1.01;100.00;96653.84;5040872;28;20193;-67
2021/01/14 06:19:15;;;;;;;4.43;3.97;;;;;;;0.99;100.00;96660.97;5053597;28;20182;-68
2021/01/14 06:21:48;;;;;;;6.83;4.13;;;;;;;1.09;100.00;96671.06;5054506;28;20666;-67
2021/01/14 06:24:30;;;;;;;5.10;4.33;;;;;;;1.03;100.00;96667.41;5052343;28;20224;-68
2021/01/14 06:27:09;;;;;;;4.60;4.10;;;;;;;1.10;100.00;96668.34;5054076;28;20194;-69
2021/01/14 06:29:42;;;;;;;6.70;5.37;;;;;;;1.04;100.00;96676.75;5053769;28;20182;-67
2021/01/14 06:32:15;;;;;;;6.40;4.20;;;;;;;1.05;100.00;96673.22;5052719;28;20202;-67
2021/01/14 06:34:42;;;;;;;4.73;4.10;;;;;;;1.12;100.00;96679.28;5054003;28;20193;-67
2021/01/14 06:37:08;;;;;;;4.60;4.20;;;;;;;1.13;100.00;96672.34;5053463;28;20624;-68
2021/01/14 06:39:45;;;;;;;4.80;3.67;;;;;;;1.18;100.00;96686.34;5053326;28;20197;-68
2021/01/14 06:42:19;;;;;;;4.93;4.10;;;;;;;1.24;100.00;96692.59;5053024;28;20506;-68
2021/01/14 06:44:56;;;;;;;4.77;4.27;;;;;;;1.01;100.00;96692.56;5053519;28;20531;-67
2021/01/14 06:47:47;;;;;;;5.63;4.20;;;;;;;1.12;100.00;96697.34;5041863;28;20210;-68
2021/01/14 06:50:16;;;;;;;5.43;4.67;;;;;;;1.03;100.00;96706.09;5042483;28;20265;-67
2021/01/14 06:53:03;;;;;;;4.43;4.03;;;;;;;0.96;100.00;96712.91;5044441;28;20275;-70
2021/01/14 06:55:32;;;;;;;6.70;4.50;;;;;;;0.88;100.00;96694.09;5041271;28;20651;-69
2021/01/14 06:58:19;;;;;;;6.87;5.00;;;;;;;0.92;100.00;96696.16;5043584;28;20218;-67
2021/01/14 07:00:50;;;;;;;6.87;5.13;;;;;;;1.45;100.00;96704.91;5053095;28;20174;-65
2021/01/14 07:03:18;;;;;;;6.00;5.23;;;;;;;2.02;100.00;96713.00;5052518;28;20182;-67
2021/01/14 07:05:53;;;;;;;6.83;4.57;;;;;;;1.59;97.41;96701.56;5052382;28;20324;-68
2021/01/14 07:08:21;;;;;;;5.07;4.20;;;;;;;1.40;97.67;96710.56;5051129;28;20181;-67
2021/01/14 07:11:00;;;;;;;4.30;3.90;;;;;;;1.22;98.18;96697.16;5052609;28;20209;-67
2021/01/14 07:13:34;;;;;;;6.73;4.77;;;;;;;1.16;98.46;96690.88;5052369;28;20796;-68
2021/01/14 07:16:00;;;;;;;4.63;4.20;;;;;;;1.10;98.65;96709.63;5046131;28;20200;-67
2021/01/14 07:18:28;;;;;;;6.20;4.33;;;;;;;0.98;98.85;96712.75;5052531;28;20261;-68
2021/01/14 07:20:59;;;;;;;6.13;4.80;;;;;;;1.01;98.19;96704.66;5051347;28;20669;-68
2021/01/14 07:23:26;;;;;;;7.67;4.90;;;;;;;0.88;99.61;96717.31;5052241;28;20172;-67
2021/01/14 07:25:54;;;;;;;6.77;5.00;;;;;;;0.96;99.32;96712.91;5052622;28;20276;-66
2021/01/14 07:28:19;;;;;;;5.97;5.10;;;;;;;0.93;99.50;96710.66;5034268;28;20654;-67
2021/01/14 07:30:45;;;;;;;6.83;4.47;;;;;;;0.95;97.69;96713.09;5052268;28;20202;-68
2021/01/14 07:33:10;;;;;;;6.37;4.60;;;;;;;0.97;97.79;96719.69;5052250;28;20240;-66
2021/01/14 07:35:42;;;;;;;5.93;4.60;;;;;;;0.95;98.08;96723.41;5053086;28;20205;-68
2021/01/14 07:38:16;;;;;;;5.83;4.43;;;;;;;0.98;98.47;96733.38;5052608;28;20264;-73
2021/01/14 07:40:43;;;;;;;6.57;4.67;;;;;;;0.99;97.78;96737.59;5051271;28;20186;-75
2021/01/14 07:43:14;;;;;;;9.53;5.20;;;;;;;0.93;97.46;96751.94;5051812;28;20198;-70
2021/01/14 07:45:40;;;;;;;8.13;4.87;;;;;;;0.99;98.33;96743.53;5052485;28;20507;-71
2021/01/14 07:48:20;;;;;;;6.60;5.03;;;;;;;1.03;97.92;96755.13;5034700;28;20193;-78
2021/01/14 07:50:58;;;;;;;5.57;5.07;;;;;;;1.02;98.96;96750.94;5034984;28;20198;-73
2021/01/14 07:53:26;;;;;;;6.10;5.50;;;;;;;1.06;98.69;96751.44;5051312;28;20935;-74
2021/01/14 07:55:52;;;;;;;6.07;4.77;;;;;;;0.95;98.23;96757.72;5049825;28;20213;-72
2021/01/14 07:58:23;;;;;;;6.77;5.07;;;;;;;1.09;97.44;96753.66;5051108;28;20193;-72
2021/01/14 08:00:59;;;;;;;6.33;5.10;;;;;;;1.03;97.48;96759.50;5052509;28;20703;-72
2021/01/14 08:03:38;;;;;;;6.10;4.97;;;;;;;1.02;97.80;96753.53;5044439;28;20178;-72
2021/01/14 08:06:42;;;;;;;6.43;5.03;;;;;;;1.02;97.82;96756.09;5039911;28;20183;-77
2021/01/14 08:09:09;;;;;;;5.40;4.60;;;;;;;0.99;97.53;96755.63;5044392;28;20685;-73
2021/01/14 08:11:58;;;;;;;8.07;4.67;;;;;;;0.93;97.58;96751.16;5041741;28;20667;-70
2021/01/14 08:14:33;;;;;;;5.80;5.20;;;;;;;0.93;97.71;96762.28;5020627;28;20220;-70
2021/01/14 08:17:01;;;;;;;6.47;5.00;;;;;;;1.04;97.99;96763.69;5040413;28;20174;-71
2021/01/14 08:19:32;;;;;;;6.10;5.03;;;;;;;1.07;97.08;96764.13;5021694;28;20195;-72
2021/01/14 08:21:58;;;;;;;8.07;5.73;;;;;;;1.19;97.18;96773.13;5042673;28;20638;-70
2021/01/14 08:24:42;;;;;;;11.47;6.63;;;;;;;1.19;96.13;96775.72;5041056;28;20229;-74
2021/01/14 08:27:10;;;;;;;14.50;7.23;;;;;;;1.09;96.74;96769.13;5039243;28;20206;-72
2021/01/14 08:29:47;;;;;;;13.50;6.43;;;;;;;1.05;95.11;96773.84;5040681;28;20606;-69
2021/01/14 08:32:38;;;;;;;9.53;5.70;;;;;;;1.09;94.44;96774.31;5042682;28;20239;-68
2021/01/14 08:35:15;;;;;;;7.07;4.80;;;;;;;0.98;94.30;96764.34;5051338;28;20712;-77
2021/01/14 08:37:43;;;;;;;7.47;4.80;;;;;;;0.99;93.05;96777.09;5049846;28;20177;-68
2021/01/14 08:40:11;;;;;;;8.83;5.17;;;;;;;0.79;93.86;96789.56;5050660;28;20189;-70
2021/01/14 08:42:39;;;;;;;5.67;4.83;;;;;;;0.82;94.63;96794.41;5051026;28;20178;-69
2021/01/14 08:45:16;;;;;;;7.30;5.30;;;;;;;0.87;95.23;96806.78;5051349;28;20247;-70
2021/01/14 08:47:56;;;;;;;9.53;5.43;;;;;;;0.95;94.50;96811.13;5050724;28;20256;-69
2021/01/14 08:50:35;;;;;;;8.40;5.00;;;;;;;0.90;95.37;96803.88;5050402;28;20235;-69
2021/01/14 08:53:02;;;;;;;7.17;5.17;;;;;;;0.86;94.73;96800.03;5045221;28;20654;-71
2021/01/14 08:55:29;;;;;;;7.50;5.33;;;;;;;0.88;93.08;96802.44;5049700;28;20270;-72
2021/01/14 08:57:58;;;;;;;6.43;4.70;;;;;;;0.86;93.04;96807.75;5051266;28;20573;-70
2021/01/14 09:00:24;;;;;;;9.73;4.97;;;;;;;0.81;93.14;96813.41;5032799;28;20174;-69
2021/01/14 09:02:50;;;;;;;8.27;5.10;;;;;;;0.71;94.16;96812.81;5032809;28;20188;-68
2021/01/14 09:05:19;;;;;;;10.00;5.37;;;;;;;0.89;94.03;96825.50;5050062;28;20177;-73
2021/01/14 09:08:05;;;;;;;7.57;4.93;;;;;;;0.92;94.66;96822.56;5051096;28;20308;-72
2021/01/14 09:10:46;;;;;;;5.63;4.90;;;;;;;0.93;93.95;96820.81;5031998;28;20259;-73
2021/01/14 09:13:14;;;;;;;8.77;5.50;;;;;;;0.98;93.60;96823.69;5049244;28;20185;-71
2021/01/14 09:15:40;;;;;;;7.43;5.53;;;;;;;0.98;93.20;96819.34;5050415;28;20178;-71
2021/01/14 09:18:07;;;;;;;13.40;7.10;;;;;;;0.90;93.67;96821.94;5033104;28;20194;-76
2021/01/14 09:20:32;;;;;;;11.93;6.67;;;;;;;0.92;94.16;96835.47;5050581;28;20209;-73
2021/01/14 09:23:19;;;;;;;12.20;6.57;;;;;;;1.00;93.95;96840.63;5049659;28;20221;-71
2021/01/14 09:25:55;;;;;;;7.03;5.87;;;;;;;1.01;93.93;96844.78;5050423;28;20221;-71
2021/01/14 09:28:23;;;;;;;12.47;5.90;;;;;;;0.98;94.14;96849.50;5049525;28;20189;-70
2021/01/14 09:30:59;;;;;;;8.50;5.90;;;;;;;0.99;94.21;96846.75;5051020;28;20205;-70
2021/01/14 09:33:31;;;;;;;9.73;6.13;;;;;;;1.09;94.48;96852.53;5032221;28;20180;-71
2021/01/14 09:36:17;;;;;;;8.70;5.47;;;;;;;1.21;94.60;96860.72;5050834;28;20267;-68
2021/01/14 09:38:51;;;;;;;7.07;5.50;;;;;;;1.25;95.57;96862.81;5050142;28;20521;-66
2021/01/14 09:41:23;;;;;;;6.97;5.47;;;;;;;1.14;95.12;96864.94;5038868;28;20205;-66
2021/01/14 09:43:53;;;;;;;7.67;5.60;;;;;;;1.29;94.05;96877.94;5037761;28;20179;-67
2021/01/14 09:46:21;;;;;;;9.40;5.70;;;;;;;1.41;93.56;96881.78;5042136;28;20182;-66
2021/01/14 09:48:47;;;;;;;7.83;5.43;;;;;;;1.46;92.95;96884.66;5050440;28;20178;-66
2021/01/14 09:51:13;;;;;;;8.03;5.90;;;;;;;1.51;92.80;96885.78;5049875;28;20194;-67
2021/01/14 09:53:43;;;;;;;8.30;5.03;;;;;;;1.46;92.47;96884.66;5039584;28;20181;-64
2021/01/14 09:56:22;;;;;;;7.50;4.97;;;;;;;1.54;91.76;96882.06;5047261;28;20288;-69
2021/01/14 09:58:52;;;;;;;5.80;4.90;;;;;;;1.61;91.37;96876.06;5050743;28;20170;-66
2021/01/14 10:01:22;;;;;;;7.70;4.70;;;;;;;1.62;91.03;96882.03;5049961;28;20232;-66
2021/01/14 10:03:53;;;;;;;6.37;4.50;;;;;;;1.43;90.95;96883.25;5050922;28;20528;-65
2021/01/14 10:06:20;;;;;;;4.73;4.23;;;;;;;1.54;91.84;96889.81;5050222;28;20265;-67
2021/01/14 10:08:49;;;;;;;7.07;5.00;;;;;;;1.49;91.65;96897.25;5050225;28;20223;-70
2021/01/14 10:11:18;;;;;;;7.60;4.80;;;;;;;1.49;90.29;96897.25;5049346;28;20206;-69
2021/01/14 10:13:51;;;;;;;7.60;4.47;;;;;;;1.53;90.04;96895.94;5050578;28;20197;-69
2021/01/14 10:16:21;;;;;;;6.60;4.50;;;;;;;1.50;90.88;96893.72;5050096;28;20174;-70
2021/01/14 10:18:47;;;;;;;7.37;4.67;;;;;;;1.60;89.35;96894.31;5050382;28;20228;-70
2021/01/14 10:21:16;;;;;;;8.77;4.83;;;;;;;1.45;90.60;96889.03;5051046;28;20664;-68
2021/01/14 10:23:42;;;;;;;5.57;4.33;;;;;;;1.43;90.79;96883.25;5036172;28;20198;-67
2021/01/14 10:26:07;;;;;;;5.77;4.23;;;;;;;1.61;90.34;96885.59;5051734;28;20268;-74
2021/01/14 10:28:43;;;;;;;7.10;4.37;;;;;;;1.75;90.35;96886.66;5053116;28;20202;-68
2021/01/14 10:31:09;;;;;;;6.20;4.40;;;;;;;1.76;88.59;96883.09;5053510;28;20784;-73
2021/01/14 10:33:34;;;;;;;5.70;4.10;;;;;;;1.81;88.43;96883.41;5053272;28;20194;-67
2021/01/14 10:36:00;;;;;;;8.23;4.57;;;;;;;1.86;88.00;96892.25;5053535;28;20196;-67
2021/01/14 10:38:26;;;;;;;5.77;4.40;;;;;;;1.81;88.85;96894.53;5053037;28;20189;-67
2021/01/14 10:40:54;;;;;;;5.97;4.50;;;;;;;1.70;88.97;96897.50;5053701;28;20177;-71
2021/01/14 10:43:30;;;;;;;6.73;4.63;;;;;;;1.85;88.87;96895.00;5052874;28;20228;-67
2021/01/14 10:45:56;;;;;;;5.93;3.90;;;;;;;1.83;87.70;96891.78;5053558;28;20189;-67
2021/01/14 10:48:22;;;;;;;5.93;4.60;;;;;;;1.86;87.42;96897.41;5035287;28;20178;-65
2021/01/14 10:50:52;;;;;;;6.23;4.50;;;;;;;1.77;87.00;96901.03;5053759;28;20202;-65
2021/01/14 10:53:27;;;;;;;5.43;4.23;;;;;;;1.75;86.98;96902.16;5052591;28;20190;-65
2021/01/14 10:56:09;;;;;;;9.03;5.10;;;;;;;1.74;86.52;96929.75;5053477;28;20181;-65
2021/01/14 10:58:36;;;;;;;7.13;4.67;;;;;;;1.60;86.50;96933.88;5053494;28;20190;-65
2021/01/14 11:01:02;;;;;;;7.37;4.40;;;;;;;1.72;87.41;96923.97;5052405;28;20624;-65
2021/01/14 11:03:29;;;;;;;8.00;4.37;;;;;;;1.72;86.81;96926.56;5052657;28;20264;-65
2021/01/14 11:05:59;;;;;;;7.90;4.83;;;;;;;1.68;87.22;96922.69;5053010;28;20190;-66
2021/01/14 11:08:27;;;;;;;8.03;5.20;;;;;;;1.84;87.13;96925.19;5051144;28;20189;-67
2021/01/14 11:11:06;;;;;;;11.43;5.40;;;;;;;1.58;86.98;96919.50;5052736;28;20213;-67
2021/01/14 11:13:36;;;;;;;12.63;5.27;;;;;;;1.75;87.57;96913.28;5052206;28;20251;-67
2021/01/14 11:16:02;;;;;;;6.83;5.53;;;;;;;1.79;87.67;96895.66;5053636;28;20178;-67
2021/01/14 11:18:27;;;;;;;6.20;4.70;;;;;;;1.79;86.98;96895.66;5034501;28;20379;-68
2021/01/14 11:20:52;;;;;;;6.90;5.00;;;;;;;1.57;87.47;96895.44;5052781;28;20216;-69
2021/01/14 11:23:18;;;;;;;9.13;5.30;;;;;;;1.83;87.59;96902.94;5050032;28;20258;-68
2021/01/14 11:25:43;;;;;;;8.37;5.07;;;;;;;1.74;85.55;96910.88;5049880;28;20297;-69
2021/01/14 11:28:09;;;;;;;6.40;4.93;;;;;;;1.88;86.54;96905.00;5029112;28;20187;-76
2021/01/14 11:30:34;;;;;;;8.90;5.17;;;;;;;1.89;86.22;96906.63;5041688;28;20264;-68
2021/01/14 11:32:59;;;;;;;8.93;4.67;;;;;;;1.95;86.40;96901.56;5052080;28;20235;-69
2021/01/14 11:35:25;;;;;;;5.77;4.50;;;;;;;2.04;85.84;96903.16;5051632;28;20185;-69
2021/01/14 11:37:50;;;;;;;6.27;4.67;;;;;;;1.88;84.61;96898.06;5052721;28;20178;-69
2021/01/14 11:40:16;;;;;;;7.93;5.33;;;;;;;1.70;85.20;96899.28;5051777;28;20551;-70
2021/01/14 11:42:41;;;;;;;6.70;5.23;;;;;;;1.63;85.76;96902.53;5052845;28;20212;-69
2021/01/14 11:45:08;;;;;;;5.07;4.47;;;;;;;1.74;85.23;96895.38;5052709;28;20185;-69
2021/01/14 11:47:34;;;;;;;7.73;4.80;;;;;;;1.93;84.49;96905.31;5052199;28;20194;-70
2021/01/14 11:49:59;;;;;;;6.73;4.40;;;;;;;1.83;82.90;96907.28;5050527;28;20235;-69
2021/01/14 11:52:25;;;;;;;6.10;5.10;;;;;;;1.75;85.35;96912.50;5051498;28;20201;-69
2021/01/14 11:54:51;;;;;;;8.37;5.13;;;;;;;1.99;85.04;96900.28;5051990;28;20522;-69
2021/01/14 11:57:16;;;;;;;6.00;4.83;;;;;;;2.01;83.57;96884.56;5049484;28;20212;-70
2021/01/14 11:59:42;;;;;;;8.50;5.30;;;;;;;2.24;83.65;96887.97;5052091;28;20182;-69
2021/01/14 12:02:07;;;;;;;6.03;4.50;;;;;;;2.42;83.33;96888.50;5052449;28;20186;-77
2021/01/14 12:04:33;;;;;;;8.03;5.00;;;;;;;2.50;82.56;96885.06;5050104;28;20648;-72
2021/01/14 12:06:58;;;;;;;6.30;4.30;;;;;;;2.49;82.33;96881.69;5052285;28;20205;-69
2021/01/14 12:09:23;;;;;;;6.80;4.60;;;;;;;2.34;81.14;96890.38;5050649;28;20231;-69
2021/01/14 12:11:53;;;;;;;7.00;4.80;;;;;;;2.23;82.36;96885.59;5052275;28;20206;-69
2021/01/14 12:14:18;;;;;;;8.00;5.33;;;;;;;2.02;82.05;96879.25;5051587;28;20210;-71
2021/01/14 12:16:44;;;;;;;8.70;5.23;;;;;;;2.23;81.94;96878.63;5052064;28;20205;-70
2021/01/14 12:19:09;;;;;;;8.70;5.40;;;;;;;2.31;81.11;96885.53;5051352;28;20593;-76
2021/01/14 12:21:34;;;;;;;8.03;5.10;;;;;;;2.43;80.02;96877.19;5050326;28;20269;-70
2021/01/14 12:24:00;;;;;;;7.73;4.77;;;;;;;2.44;80.42;96875.41;5051476;28;20174;-70
2021/01/14 12:26:25;;;;;;;7.27;4.40;;;;;;;2.52;79.67;96877.91;5050580;28;20222;-69
2021/01/14 12:28:51;;;;;;;5.60;4.57;;;;;;;2.69;79.17;96876.00;5052176;28;20186;-69
2021/01/14 12:31:16;;;;;;;7.43;5.07;;;;;;;2.81;78.71;96879.78;5050649;28;20209;-72
2021/01/14 12:33:41;;;;;;;7.33;5.20;;;;;;;2.94;78.49;96880.00;5052120;28;20536;-70
2021/01/14 12:36:07;;;;;;;8.33;4.20;;;;;;;2.87;77.95;96866.94;5051920;28;20646;-73
2021/01/14 12:38:32;;;;;;;8.13;4.10;;;;;;;3.20;79.67;96869.22;5050980;28;20252;-70
2021/01/14 12:40:58;;;;;;;7.90;4.17;;;;;;;3.01;78.18;96867.16;5051594;28;20646;-69
2021/01/14 12:43:23;;;;;;;7.60;4.40;;;;;;;3.25;78.42;96865.09;5049998;28;20615;-70